CheckWX is a tool to help pilots better visualize weather data.  It is not intended as a substitute for an official pre-flight weather briefing.

06:00:37 UTC

KPEO METAR
Penn Yan Airport
Penn Yan, New York, USA
Current

1 hour ago

KPEO 020453Z AUTO 20005KT 10SM CLR 16/03 A3008 RMK AO2 SLP185 T01560033 402110056
Observed
Jun-2 @ 04:53 UTC
Wind
  • 200° at 5 KTS
Visibility
Flight Rules
VFR
Cloud Levels
  • Clear skies
Dewpoint
C / 37°F
Humidity
42%
Altimeter
30.08" Hg
Pressure
1018.62 hPa
Previous

2 hours ago

KPEO 020353Z AUTO 23008KT 10SM CLR 16/02 A3009 RMK AO2 SLP188 T01610022
Observed
Jun-2 @ 03:53 UTC
Wind
  • 230° at 8 KTS
Visibility
Flight Rules
VFR
Cloud Levels
  • Clear skies
Temperature
16°C / 61°F
Dewpoint
C / 36°F
Humidity
39%
Altimeter
30.09" Hg
Pressure
1018.92 hPa
Previous

3 hours ago

KPEO 020253Z AUTO 26011KT 10SM CLR 17/02 A3010 RMK AO2 SLP191 T01670017 50001
Observed
Jun-2 @ 02:53 UTC
Wind
  • 260° at 11 KTS
Visibility
Flight Rules
VFR
Cloud Levels
  • Clear skies
Temperature
17°C / 63°F
Dewpoint
C / 36°F
Humidity
37%
Altimeter
30.1" Hg
Pressure
1019.32 hPa